DAL2523 KLAS-KBUR
Flight info
| Callsign | DAL2523 |
|---|---|
| Flight time | 0h 41m |
| Altitude | 28000 |
| Route | RADYR2 SLVRR KREME JANNY5 |
| Aircraft | A20N/M-SDE2E3FGHIRWXY/LB1 |
Departure
| Time | 2026-05-08 03:07 |
|---|---|
| Airport | Harry Reid International Airport (KLAS) |
Arrival
| Time | 2026-05-08 03:48 |
|---|---|
| Airport | Hollywood Burbank/Bob Hope Airport (KBUR) |
| Time | Latitude | Longitude | Altitude | Speed | Heading |
|---|---|---|---|---|---|
| 2026-05-08 02:42 | 36.07963 | -115.14623 | 2118 ft | 0 kts | 354° |
| 2026-05-08 02:55 | 36.07958 | -115.14622 | 2118 ft | 1 kts | 354° |
| 2026-05-08 02:55 | 36.07951 | -115.14621 | 2118 ft | 1 kts | 353° |
| 2026-05-08 02:56 | 36.07943 | -115.14620 | 2118 ft | 1 kts | 353° |
| 2026-05-08 02:56 | 36.07935 | -115.14619 | 2118 ft | 1 kts | 10° |
| 2026-05-08 02:56 | 36.07928 | -115.14621 | 2118 ft | 1 kts | 41° |
| 2026-05-08 02:56 | 36.07921 | -115.14630 | 2121 ft | 1 kts | 74° |
| 2026-05-08 03:00 | 36.07922 | -115.14627 | 2118 ft | 2 kts | 75° |
| 2026-05-08 03:01 | 36.07910 | -115.14566 | 2118 ft | 11 kts | 142° |
| 2026-05-08 03:01 | 36.07855 | -115.14617 | 2119 ft | 13 kts | 260° |
| 2026-05-08 03:01 | 36.07819 | -115.14712 | 2120 ft | 12 kts | 225° |
| 2026-05-08 03:01 | 36.07787 | -115.14799 | 2123 ft | 11 kts | 264° |
| 2026-05-08 03:02 | 36.07789 | -115.14887 | 2125 ft | 10 kts | 273° |
| 2026-05-08 03:02 | 36.07793 | -115.14979 | 2125 ft | 12 kts | 273° |
| 2026-05-08 03:02 | 36.07798 | -115.15092 | 2125 ft | 14 kts | 273° |
| 2026-05-08 03:02 | 36.07804 | -115.15221 | 2128 ft | 15 kts | 273° |
| 2026-05-08 03:03 | 36.07809 | -115.15348 | 2129 ft | 15 kts | 273° |
| 2026-05-08 03:03 | 36.07814 | -115.15484 | 2127 ft | 17 kts | 272° |
| 2026-05-08 03:03 | 36.07820 | -115.15648 | 2124 ft | 20 kts | 270° |
| 2026-05-08 03:03 | 36.07807 | -115.15824 | 2126 ft | 21 kts | 266° |
| 2026-05-08 03:04 | 36.07803 | -115.16012 | 2120 ft | 23 kts | 270° |
| 2026-05-08 03:04 | 36.07803 | -115.16175 | 2119 ft | 17 kts | 270° |
| 2026-05-08 03:04 | 36.07793 | -115.16290 | 2121 ft | 12 kts | 244° |
| 2026-05-08 03:04 | 36.07704 | -115.16363 | 2122 ft | 21 kts | 204° |
| 2026-05-08 03:05 | 36.07562 | -115.16445 | 2124 ft | 23 kts | 203° |
| 2026-05-08 03:05 | 36.07428 | -115.16516 | 2127 ft | 15 kts | 205° |
| 2026-05-08 03:05 | 36.07394 | -115.16630 | 2123 ft | 16 kts | 289° |
| 2026-05-08 03:05 | 36.07476 | -115.16709 | 2122 ft | 16 kts | 11° |
| 2026-05-08 03:06 | 36.07660 | -115.16612 | 2124 ft | 59 kts | 25° |
| 2026-05-08 03:06 | 36.08249 | -115.16283 | 2122 ft | 124 kts | 24° |
| 2026-05-08 03:06 | 36.09188 | -115.15742 | 2128 ft | 172 kts | 24° |
| 2026-05-08 03:06 | 36.10284 | -115.15102 | 2647 ft | 175 kts | 25° |
| 2026-05-08 03:07 | 36.11395 | -115.14423 | 3160 ft | 183 kts | 25° |
| 2026-05-08 03:07 | 36.12566 | -115.13687 | 3562 ft | 194 kts | 23° |
| 2026-05-08 03:07 | 36.13869 | -115.13251 | 4014 ft | 196 kts | 349° |
| 2026-05-08 03:07 | 36.15023 | -115.14075 | 4462 ft | 199 kts | 301° |
| 2026-05-08 03:08 | 36.15276 | -115.15722 | 4963 ft | 204 kts | 258° |
| 2026-05-08 03:08 | 36.14796 | -115.17470 | 5296 ft | 228 kts | 248° |
| 2026-05-08 03:08 | 36.14195 | -115.19406 | 5622 ft | 254 kts | 250° |
| 2026-05-08 03:08 | 36.13642 | -115.21549 | 6036 ft | 275 kts | 254° |
| 2026-05-08 03:09 | 36.13102 | -115.23851 | 6733 ft | 283 kts | 253° |
| 2026-05-08 03:09 | 36.12338 | -115.26104 | 7647 ft | 281 kts | 240° |
| 2026-05-08 03:09 | 36.11154 | -115.28031 | 8582 ft | 284 kts | 226° |
| 2026-05-08 03:09 | 36.09525 | -115.29481 | 9275 ft | 297 kts | 207° |
| 2026-05-08 03:10 | 36.07528 | -115.30309 | 9957 ft | 306 kts | 197° |
| 2026-05-08 03:10 | 36.05484 | -115.31121 | 10660 ft | 315 kts | 202° |
| 2026-05-08 03:10 | 36.03397 | -115.32227 | 10927 ft | 339 kts | 205° |
| 2026-05-08 03:10 | 36.01181 | -115.33458 | 11293 ft | 356 kts | 205° |
| 2026-05-08 03:11 | 35.98866 | -115.34691 | 11855 ft | 367 kts | 204° |
| 2026-05-08 03:11 | 35.96497 | -115.35889 | 12682 ft | 369 kts | 203° |
| 2026-05-08 03:11 | 35.94069 | -115.37002 | 13425 ft | 375 kts | 197° |
| 2026-05-08 03:11 | 35.91507 | -115.37697 | 14165 ft | 379 kts | 188° |
| 2026-05-08 03:12 | 35.88888 | -115.37918 | 14888 ft | 382 kts | 181° |
| 2026-05-08 03:12 | 35.86217 | -115.37982 | 15618 ft | 386 kts | 181° |
| 2026-05-08 03:12 | 35.83521 | -115.38060 | 16388 ft | 388 kts | 181° |
| 2026-05-08 03:12 | 35.80807 | -115.38144 | 17041 ft | 393 kts | 181° |
| 2026-05-08 03:13 | 35.78058 | -115.38233 | 17703 ft | 398 kts | 181° |
| 2026-05-08 03:13 | 35.75273 | -115.38324 | 18366 ft | 402 kts | 181° |
| 2026-05-08 03:13 | 35.72461 | -115.38415 | 18955 ft | 406 kts | 181° |
| 2026-05-08 03:13 | 35.69620 | -115.38507 | 19539 ft | 410 kts | 181° |
| 2026-05-08 03:14 | 35.66787 | -115.38599 | 20114 ft | 414 kts | 181° |
| 2026-05-08 03:14 | 35.63859 | -115.38785 | 20696 ft | 419 kts | 188° |
| 2026-05-08 03:14 | 35.61085 | -115.39745 | 21246 ft | 422 kts | 204° |
| 2026-05-08 03:14 | 35.58566 | -115.41601 | 21792 ft | 424 kts | 220° |
| 2026-05-08 03:15 | 35.56449 | -115.44143 | 22326 ft | 426 kts | 230° |
| 2026-05-08 03:15 | 35.54521 | -115.46927 | 22885 ft | 430 kts | 232° |
| 2026-05-08 03:15 | 35.52590 | -115.49768 | 23428 ft | 435 kts | 232° |
| 2026-05-08 03:15 | 35.50609 | -115.52600 | 23911 ft | 439 kts | 231° |
| 2026-05-08 03:16 | 35.48606 | -115.55380 | 24413 ft | 441 kts | 230° |
| 2026-05-08 03:16 | 35.46541 | -115.58192 | 24910 ft | 443 kts | 229° |
| 2026-05-08 03:16 | 35.44461 | -115.60999 | 25360 ft | 446 kts | 229° |
| 2026-05-08 03:16 | 35.42360 | -115.63823 | 25819 ft | 449 kts | 229° |
| 2026-05-08 03:17 | 35.40251 | -115.66654 | 26307 ft | 450 kts | 229° |
| 2026-05-08 03:17 | 35.38130 | -115.69500 | 26757 ft | 453 kts | 229° |
| 2026-05-08 03:17 | 35.36001 | -115.72356 | 27176 ft | 455 kts | 229° |
| 2026-05-08 03:17 | 35.33797 | -115.75164 | 27589 ft | 459 kts | 224° |
| 2026-05-08 03:18 | 35.31432 | -115.77807 | 27865 ft | 462 kts | 224° |
| 2026-05-08 03:18 | 35.29049 | -115.80470 | 27926 ft | 463 kts | 223° |
| 2026-05-08 03:18 | 35.26673 | -115.83127 | 27928 ft | 462 kts | 223° |
| 2026-05-08 03:18 | 35.24328 | -115.85749 | 27927 ft | 463 kts | 223° |
| 2026-05-08 03:19 | 35.21949 | -115.88408 | 27928 ft | 463 kts | 223° |
| 2026-05-08 03:19 | 35.19569 | -115.91066 | 27901 ft | 463 kts | 223° |
| 2026-05-08 03:19 | 35.17185 | -115.93726 | 27899 ft | 463 kts | 223° |
| 2026-05-08 03:19 | 35.14811 | -115.96378 | 27895 ft | 461 kts | 223° |
| 2026-05-08 03:20 | 35.12446 | -115.99012 | 27910 ft | 460 kts | 223° |
| 2026-05-08 03:20 | 35.10073 | -116.01649 | 27879 ft | 461 kts | 223° |
| 2026-05-08 03:20 | 35.07704 | -116.04281 | 27884 ft | 461 kts | 223° |
| 2026-05-08 03:20 | 35.05331 | -116.06915 | 27883 ft | 461 kts | 223° |
| 2026-05-08 03:21 | 35.02960 | -116.09547 | 27875 ft | 461 kts | 223° |
| 2026-05-08 03:21 | 35.00587 | -116.12178 | 27882 ft | 461 kts | 223° |
| 2026-05-08 03:21 | 34.98207 | -116.14817 | 27876 ft | 464 kts | 223° |
| 2026-05-08 03:21 | 34.95819 | -116.17462 | 27875 ft | 463 kts | 223° |
| 2026-05-08 03:22 | 34.93558 | -116.20184 | 27880 ft | 462 kts | 230° |
| 2026-05-08 03:22 | 34.91592 | -116.23269 | 27754 ft | 461 kts | 238° |
| 2026-05-08 03:22 | 34.89994 | -116.26642 | 27490 ft | 457 kts | 246° |
| 2026-05-08 03:22 | 34.88657 | -116.30129 | 27168 ft | 454 kts | 247° |
| 2026-05-08 03:23 | 34.87320 | -116.33610 | 26591 ft | 453 kts | 246° |
| 2026-05-08 03:23 | 34.85984 | -116.37065 | 26025 ft | 449 kts | 246° |
| 2026-05-08 03:23 | 34.84654 | -116.40486 | 25468 ft | 445 kts | 246° |
| 2026-05-08 03:23 | 34.83331 | -116.43886 | 24889 ft | 442 kts | 246° |
| 2026-05-08 03:24 | 34.82021 | -116.47249 | 24349 ft | 438 kts | 246° |
| 2026-05-08 03:24 | 34.80717 | -116.50595 | 23782 ft | 436 kts | 246° |
| 2026-05-08 03:24 | 34.79514 | -116.53957 | 23162 ft | 432 kts | 252° |
| 2026-05-08 03:24 | 34.78683 | -116.57431 | 22673 ft | 423 kts | 260° |
| 2026-05-08 03:25 | 34.78233 | -116.60908 | 22488 ft | 412 kts | 266° |
| 2026-05-08 03:25 | 34.77913 | -116.64387 | 22340 ft | 419 kts | 266° |
| 2026-05-08 03:25 | 34.77571 | -116.67936 | 22106 ft | 422 kts | 266° |
| 2026-05-08 03:25 | 34.77224 | -116.71473 | 21944 ft | 417 kts | 266° |
| 2026-05-08 03:26 | 34.76882 | -116.74968 | 21636 ft | 414 kts | 265° |
| 2026-05-08 03:26 | 34.76656 | -116.77268 | 21477 ft | 413 kts | 266° |
| 2026-05-08 03:26 | 34.76315 | -116.80733 | 21219 ft | 414 kts | 266° |
| 2026-05-08 03:26 | 34.75975 | -116.84208 | 20979 ft | 414 kts | 266° |
| 2026-05-08 03:27 | 34.75635 | -116.87671 | 20728 ft | 411 kts | 265° |
| 2026-05-08 03:27 | 34.75291 | -116.91102 | 20498 ft | 406 kts | 265° |
| 2026-05-08 03:27 | 34.74945 | -116.94499 | 20262 ft | 406 kts | 265° |
| 2026-05-08 03:27 | 34.74600 | -116.97907 | 20027 ft | 405 kts | 265° |
| 2026-05-08 03:28 | 34.74256 | -117.01291 | 19794 ft | 401 kts | 265° |
| 2026-05-08 03:28 | 34.73912 | -117.04657 | 19565 ft | 401 kts | 265° |
| 2026-05-08 03:28 | 34.73569 | -117.08027 | 19321 ft | 401 kts | 265° |
| 2026-05-08 03:28 | 34.73226 | -117.11382 | 19092 ft | 398 kts | 265° |
| 2026-05-08 03:29 | 34.72884 | -117.14714 | 18859 ft | 396 kts | 265° |
| 2026-05-08 03:29 | 34.72541 | -117.18039 | 18624 ft | 397 kts | 265° |
| 2026-05-08 03:29 | 34.72200 | -117.21359 | 18493 ft | 395 kts | 265° |
| 2026-05-08 03:29 | 34.71858 | -117.24666 | 18263 ft | 392 kts | 265° |
| 2026-05-08 03:30 | 34.71176 | -117.31212 | 17831 ft | 393 kts | 265° |
| 2026-05-08 03:30 | 34.70497 | -117.37743 | 17392 ft | 388 kts | 264° |
| 2026-05-08 03:31 | 34.69814 | -117.44231 | 16942 ft | 386 kts | 265° |
| 2026-05-08 03:31 | 34.69137 | -117.50673 | 16487 ft | 382 kts | 264° |
| 2026-05-08 03:32 | 34.68793 | -117.53896 | 16256 ft | 385 kts | 265° |
| 2026-05-08 03:32 | 34.68447 | -117.57133 | 16026 ft | 386 kts | 264° |
| 2026-05-08 03:32 | 34.68104 | -117.60353 | 15794 ft | 382 kts | 264° |
| 2026-05-08 03:32 | 34.67762 | -117.63535 | 15567 ft | 378 kts | 265° |
| 2026-05-08 03:33 | 34.67426 | -117.66705 | 15339 ft | 378 kts | 265° |
| 2026-05-08 03:33 | 34.67090 | -117.69892 | 15108 ft | 380 kts | 264° |
| 2026-05-08 03:33 | 34.66754 | -117.73067 | 14866 ft | 376 kts | 264° |
| 2026-05-08 03:33 | 34.66421 | -117.76196 | 14650 ft | 373 kts | 264° |
| 2026-05-08 03:34 | 34.66085 | -117.79340 | 14456 ft | 375 kts | 264° |
| 2026-05-08 03:34 | 34.65749 | -117.82487 | 14254 ft | 376 kts | 264° |
| 2026-05-08 03:34 | 34.65412 | -117.85633 | 14064 ft | 372 kts | 263° |
| 2026-05-08 03:34 | 34.65079 | -117.88715 | 13952 ft | 367 kts | 264° |
| 2026-05-08 03:35 | 34.64749 | -117.91745 | 13615 ft | 367 kts | 264° |
| 2026-05-08 03:35 | 34.64413 | -117.94823 | 13077 ft | 367 kts | 263° |
| 2026-05-08 03:35 | 34.64079 | -117.97883 | 12609 ft | 363 kts | 263° |
| 2026-05-08 03:35 | 34.63749 | -118.00881 | 12306 ft | 353 kts | 263° |
| 2026-05-08 03:36 | 34.63429 | -118.03779 | 12172 ft | 339 kts | 263° |
| 2026-05-08 03:36 | 34.63094 | -118.06552 | 12042 ft | 325 kts | 260° |
| 2026-05-08 03:36 | 34.62550 | -118.09159 | 11925 ft | 312 kts | 256° |
| 2026-05-08 03:36 | 34.61993 | -118.11683 | 11630 ft | 306 kts | 256° |
| 2026-05-08 03:37 | 34.61443 | -118.14164 | 11256 ft | 303 kts | 256° |
| 2026-05-08 03:37 | 34.60894 | -118.16613 | 10946 ft | 298 kts | 255° |
| 2026-05-08 03:37 | 34.60340 | -118.19039 | 10559 ft | 296 kts | 255° |
| 2026-05-08 03:37 | 34.59799 | -118.21421 | 10159 ft | 296 kts | 256° |
| 2026-05-08 03:38 | 34.59272 | -118.23795 | 9899 ft | 289 kts | 256° |
| 2026-05-08 03:38 | 34.58756 | -118.26129 | 9468 ft | 284 kts | 256° |
| 2026-05-08 03:38 | 34.58242 | -118.28451 | 8858 ft | 284 kts | 257° |
| 2026-05-08 03:38 | 34.57733 | -118.30723 | 8596 ft | 278 kts | 257° |
| 2026-05-08 03:39 | 34.57217 | -118.33020 | 8323 ft | 282 kts | 257° |
| 2026-05-08 03:39 | 34.56702 | -118.35305 | 8076 ft | 277 kts | 257° |
| 2026-05-08 03:39 | 34.56199 | -118.37530 | 8002 ft | 276 kts | 258° |
| 2026-05-08 03:39 | 34.55685 | -118.39815 | 8003 ft | 281 kts | 258° |
| 2026-05-08 03:40 | 34.55078 | -118.42060 | 8010 ft | 281 kts | 246° |
| 2026-05-08 03:40 | 34.53906 | -118.43972 | 7940 ft | 289 kts | 225° |
| 2026-05-08 03:40 | 34.52247 | -118.45403 | 7700 ft | 293 kts | 217° |
| 2026-05-08 03:40 | 34.50553 | -118.46728 | 7517 ft | 290 kts | 217° |
| 2026-05-08 03:41 | 34.48848 | -118.48061 | 7269 ft | 290 kts | 216° |
| 2026-05-08 03:41 | 34.47172 | -118.49354 | 6945 ft | 290 kts | 216° |
| 2026-05-08 03:41 | 34.45476 | -118.50646 | 6621 ft | 288 kts | 216° |
| 2026-05-08 03:41 | 34.43766 | -118.51925 | 6200 ft | 289 kts | 216° |
| 2026-05-08 03:42 | 34.42069 | -118.53186 | 5959 ft | 281 kts | 216° |
| 2026-05-08 03:42 | 34.40457 | -118.54441 | 5787 ft | 272 kts | 216° |
| 2026-05-08 03:42 | 34.38737 | -118.55393 | 5426 ft | 275 kts | 195° |
| 2026-05-08 03:42 | 34.36829 | -118.55412 | 5107 ft | 277 kts | 166° |
| 2026-05-08 03:43 | 34.35119 | -118.54360 | 5010 ft | 275 kts | 142° |
| 2026-05-08 03:43 | 34.33828 | -118.52751 | 4997 ft | 259 kts | 117° |
| 2026-05-08 03:43 | 34.33322 | -118.50776 | 4965 ft | 238 kts | 93° |
| 2026-05-08 03:43 | 34.33165 | -118.48823 | 4789 ft | 231 kts | 91° |
| 2026-05-08 03:44 | 34.33020 | -118.46879 | 4435 ft | 230 kts | 91° |
| 2026-05-08 03:44 | 34.32883 | -118.44999 | 4344 ft | 215 kts | 92° |
| 2026-05-08 03:44 | 34.32660 | -118.43277 | 4225 ft | 201 kts | 106° |
| 2026-05-08 03:44 | 34.31980 | -118.41859 | 3977 ft | 196 kts | 129° |
| 2026-05-08 03:45 | 34.31096 | -118.40579 | 3652 ft | 196 kts | 129° |
| 2026-05-08 03:45 | 34.30191 | -118.39357 | 3351 ft | 194 kts | 137° |
| 2026-05-08 03:45 | 34.29105 | -118.38443 | 2970 ft | 190 kts | 153° |
| 2026-05-08 03:45 | 34.27883 | -118.37914 | 2530 ft | 182 kts | 162° |
| 2026-05-08 03:46 | 34.26698 | -118.37534 | 2241 ft | 169 kts | 166° |
| 2026-05-08 03:46 | 34.25612 | -118.37250 | 2029 ft | 154 kts | 168° |
| 2026-05-08 03:46 | 34.24593 | -118.36988 | 1717 ft | 146 kts | 163° |
| 2026-05-08 03:46 | 34.23610 | -118.36703 | 1409 ft | 146 kts | 168° |
| 2026-05-08 03:47 | 34.22653 | -118.36462 | 1168 ft | 135 kts | 163° |
| 2026-05-08 03:47 | 34.21747 | -118.36195 | 1001 ft | 132 kts | 164° |
| 2026-05-08 03:47 | 34.20858 | -118.35947 | 796 ft | 130 kts | 165° |
| 2026-05-08 03:47 | 34.20087 | -118.35730 | 725 ft | 78 kts | 167° |
| 2026-05-08 03:48 | 34.19835 | -118.35659 | 714 ft | 12 kts | 167° |
| 2026-05-08 03:48 | 34.19779 | -118.35585 | 716 ft | 14 kts | 97° |
| 2026-05-08 03:48 | 34.19766 | -118.35457 | 713 ft | 17 kts | 91° |
| 2026-05-08 03:48 | 34.19765 | -118.35308 | 709 ft | 15 kts | 92° |
| 2026-05-08 03:49 | 34.19708 | -118.35245 | 711 ft | 7 kts | 163° |
| 2026-05-08 03:49 | 34.19682 | -118.35243 | 712 ft | 1 kts | 180° |
| 2026-05-08 03:51 | 34.28091 | -118.37990 | 2600 ft | 184 kts | 162° |
| 2026-05-08 03:51 | 34.26735 | -118.37545 | 2250 ft | 170 kts | 166° |
| 2026-05-08 03:51 | 34.25497 | -118.37226 | 1998 ft | 153 kts | 168° |
| 2026-05-08 03:51 | 34.24266 | -118.36888 | 1610 ft | 143 kts | 164° |
| 2026-05-08 03:52 | 34.21550 | -118.36138 | 958 ft | 132 kts | 165° |
| 2026-05-08 03:52 | 34.20513 | -118.35848 | 750 ft | 124 kts | 166° |
| 2026-05-08 03:52 | 34.19890 | -118.35675 | 718 ft | 33 kts | 167° |